Ashley, Ohio
Current Conditions -  °F | °C
As of 4:36 AM on Tuesday 21 Oct 2014 (Local Time) from KDLZ Reporting Station
Haze Haze  
Wind Chill: 42°   Ceiling: 7500
Heat Index: 46°   Visibility: 5mi
Dew Point: 46°   Wind: 8mph
Humidity: 100%   Direction: 310°NW
Pressure: 29.89"   Gusts: NA
Location:  40.41°N, 82.96°W
Report Text: KDLZ 210836Z AUTO 31007KT 5SM BR SCT036 SCT060 OVC075 08/08 A2989 RMK AO2
Loading
Personal Weather Stations






























Interactive Weather Map
Tropical Storm Tracking
New forecast layout! Learn more

10-Day Weather Forecast

Advertisements
Track Severe Weather on mobile